Flight Track Log - Related Links

Times and Time Zones

All times are in EDT time to prevent confusion due to time zone crossing. See the SWA2219 flight status page for this flight to view local times or setup timezone preferences in your user account.

Time Position Orientation Groundspeed Altitude Reporting Facility
EDT Latitude Longitude Course Direction KTS MPH feet Rate Location/Type
Sat 09:41:20 PM 36.0747 -115.1128 91° East 182 209 3,100  Level Los Angeles Center
Sat 09:42:27 PM 36.0739 -115.0386 91° East 209 241 5,100 1,886 Climbing Los Angeles Center
Sat 09:43:05 PM 36.0742 -114.9797 90° East 221 254 6,400 2,160 Climbing Los Angeles Center
Sat 09:44:07 PM 36.0864 -114.8817 81° East 279 321 8,700 2,537 Climbing Los Angeles Center
Sat 09:45:08 PM 36.1025 -114.7789 79° East 299 344 11,600 2,341 Climbing Los Angeles Center
Sat 09:46:10 PM 36.1219 -114.6667 78° East 327 376 13,500 2,341 Climbing Los Angeles Center
Sat 09:47:11 PM 36.1425 -114.5419 78° East 364 419 16,400 2,732 Climbing Los Angeles Center
Sat 09:48:13 PM 36.1631 -114.4114 79° East 381 438 19,100 2,468 Climbing Los Angeles Center
Sat 09:49:15 PM 36.1856 -114.2739 79° East 402 463 21,500 2,341 Climbing Los Angeles Center
Sat 09:50:16 PM 36.2058 -114.1319 80° East 414 476 23,900 2,293 Climbing Los Angeles Center
Sat 09:51:18 PM 36.2253 -113.9522 82° East 433 498 26,200 2,049 Climbing Los Angeles Center
Sat 09:52:19 PM 36.2444 -113.7978 81° East 449 517 28,100 1,756 Climbing Los Angeles Center
Sat 09:53:21 PM 36.2644 -113.6397 81° East 461 531 29,800 1,512 Climbing Los Angeles Center
Sat 09:54:22 PM 36.2825 -113.4792 82° East 470 541 31,200 1,561 Climbing Los Angeles Center
Sat 09:55:24 PM 36.3017 -113.3153 82° East 478 550 33,000 871 Climbing Los Angeles Center
Sat 09:56:26 PM 36.3411 -113.1436 74° East 479 551 33,000 244 Level Los Angeles Center
Sat 09:57:27 PM 36.3964 -112.9928 65° Northeast 481 554 33,500 927 Climbing Los Angeles Center
Sat 09:58:29 PM 36.4519 -112.8433 65° Northeast 480 552 34,900 1,111 Climbing Los Angeles Center
Sat 09:59:42 PM 36.5081 -112.6928 65° Northeast 482 555 36,000 1,067 Climbing Los Angeles Center
Sat 10:00:44 PM 36.5750 -112.5108 65° Northeast 485 558 37,300 1,065 Climbing Los Angeles Center
Sat 10:01:46 PM 36.6314 -112.3572 65° Northeast 489 563 38,200 829 Climbing Los Angeles Center
Sat 10:02:47 PM 36.6994 -112.1708 65° Northeast 495 570 39,000 390 Climbing Los Angeles Center
Sat 10:03:49 PM 36.7553 -112.0136 66° East 499 574 39,000  Level Los Angeles Center
Sat 10:04:50 PM 36.8125 -111.8544 66° East 504 580 39,000  Level Los Angeles Center
Sat 10:05:52 PM 36.8692 -111.6958 66° East 505 581 39,000  Level Los Angeles Center
Sat 10:06:34 PM 36.9142 -111.5722 65° Northeast 502 578 39,000  Level Denver Center
Sat 10:07:36 PM 36.9703 -111.4150 66° East 500 575 39,000  Level Denver Center
Sat 10:08:37 PM 37.0242 -111.2569 67° East 498 573 39,000  Level Denver Center
Sat 10:09:38 PM 37.0800 -111.0983 66° East 500 575 39,000  Level Denver Center
Sat 10:10:40 PM 37.1344 -110.9397 67° East 498 573 39,000  Level Denver Center
Sat 10:11:41 PM 37.1911 -110.7797 66° East 503 579 39,000  Level Denver Center
Sat 10:12:43 PM 37.2447 -110.6197 67° East 500 575 39,000  Level Denver Center
Sat 10:13:44 PM 37.2994 -110.4606 67° East 499 574 39,000  Level Denver Center
Sat 10:14:45 PM 37.3667 -110.2667 66° East 504 580 39,000  Level Denver Center
Sat 10:15:47 PM 37.4228 -110.0983 67° East 503 579 39,000  Level Denver Center
Sat 10:16:48 PM 37.4753 -109.9431 67° East 504 580 39,000  Level Denver Center
Sat 10:17:49 PM 37.5281 -109.7869 67° East 505 581 39,000  Level Denver Center
Sat 10:18:51 PM 37.5878 -109.6061 67° East 501 577 39,000  Level Denver Center
Sat 10:19:52 PM 37.6389 -109.4522 67° East 497 572 39,000  Level Denver Center
Sat 10:20:53 PM 37.6886 -109.2986 68° East 494 568 39,000  Level Denver Center
Sat 10:21:55 PM 37.7469 -109.1203 67° East 491 565 39,000  Level Denver Center
Sat 10:22:56 PM 37.7972 -108.9664 67° East 492 566 39,000  Level Denver Center
Sat 10:23:57 PM 37.8278 -108.7781 78° East 488 562 39,000  Level Denver Center
Sat 10:24:59 PM 37.8481 -108.6161 81° East 485 558 39,000  Level Denver Center
Sat 10:26:00 PM 37.8681 -108.4558 81° East 484 557 39,000  Level Denver Center
Sat 10:27:01 PM 37.8908 -108.2681 81° East 482 555 39,000  Level Denver Center
Sat 10:28:03 PM 37.9111 -108.1036 81° East 490 564 39,000  Level Denver Center
Sat 10:29:04 PM 37.9308 -107.9383 81° East 493 567 39,000  Level Denver Center
Sat 10:30:05 PM 37.9531 -107.7478 82° East 490 564 39,000  Level Denver Center
Sat 10:31:19 PM 37.9725 -107.5828 81° East 492 566 39,000  Level Denver Center
Sat 10:32:20 PM 37.9981 -107.3636 82° East 492 566 39,000  Level Denver Center
Sat 10:33:22 PM 38.0169 -107.1986 82° East 494 568 39,000  Level Denver Center
Sat 10:34:23 PM 38.0364 -107.0128 82° East 491 565 39,000  Level Denver Center
Sat 10:35:24 PM 38.0556 -106.8467 82° East 496 571 39,000  Level Denver Center
Sat 10:36:26 PM 38.0761 -106.6508 82° East 500 575 39,000  Level Denver Center
Sat 10:37:27 PM 38.0939 -106.4869 82° East 506 582 39,000  Level Denver Center
Sat 10:38:28 PM 38.1128 -106.3103 82° East 507 583 39,000  Level Denver Center
Sat 10:39:29 PM 38.1119 -106.1125 90° East 504 580 39,000  Level Denver Center
Sat 10:40:31 PM 38.1108 -105.9444 90° East 500 575 39,000  Level Denver Center
Sat 10:41:32 PM 38.1078 -105.7478 91° East 499 574 39,000  Level Denver Center
Sat 10:42:33 PM 38.1044 -105.6094 92° East 494 568 39,000  Level Denver Center
Sat 10:43:35 PM 38.0817 -105.4178 99° East 492 566 39,000  Level Denver Center
Sat 10:44:36 PM 38.0564 -105.2269 99° East 492 566 39,000  Level Denver Center
Sat 10:45:37 PM 38.0364 -105.0650 99° East 488 562 39,000  Level Denver Center
Sat 10:46:39 PM 38.0181 -104.9017 98° East 487 560 39,000  Level Denver Center
Sat 10:47:40 PM 37.9978 -104.7131 98° East 483 556 39,000  Level Denver Center
Sat 10:48:41 PM 37.9869 -104.5778 96° East 482 555 39,000  Level Denver Center
Sat 10:49:43 PM 37.9833 -104.3583 91° East 486 559 39,000  Level Denver Center
Sat 10:50:44 PM 37.9831 -104.1928 90° East 486 559 39,000  Level Denver Center
Sat 10:51:45 PM 37.9825 -104.0256 90° East 490 564 39,000  Level Denver Center
Sat 10:52:47 PM 37.9819 -103.8292 90° East 495 570 39,000  Level Denver Center
Sat 10:53:48 PM 37.9803 -103.6606 91° East 496 571 39,000  Level Denver Center
Sat 10:54:49 PM 37.9792 -103.4925 90° East 495 570 39,000  Level Denver Center
Sat 10:55:51 PM 37.9764 -103.2972 91° East 495 570 39,000  Level Denver Center
Sat 10:56:52 PM 37.9744 -103.1281 91° East 499 574 39,000  Level Denver Center
Sat 10:57:53 PM 37.9722 -102.9581 91° East 502 578 39,000  Level Denver Center
Sat 10:58:55 PM 37.9697 -102.7594 91° East 503 579 39,000  Level Denver Center
Sat 10:59:56 PM 37.9667 -102.5903 91° East 503 579 39,000  Level Denver Center
Sat 11:00:57 PM 37.9639 -102.3922 91° East 504 580 39,000  Level Denver Center
Sat 11:02:11 PM 37.9594 -102.1956 92° East 503 579 39,000  Level Denver Center
Sat 11:03:12 PM 37.9556 -102.0000 91° East 499 574 39,000  Level Denver Center
Sat 11:04:13 PM 37.9511 -101.8317 92° East 501 577 39,000  Level Denver Center
Sat 11:05:15 PM 37.9458 -101.6356 92° East 498 573 39,000  Level Denver Center
Sat 11:06:16 PM 37.9408 -101.4681 92° East 498 573 39,000  Level Denver Center
Sat 11:07:17 PM 37.9364 -101.3017 92° East 495 570 39,000  Level Denver Center
Sat 11:08:18 PM 37.9314 -101.1061 92° East 494 568 39,000  Level Denver Center
Sat 11:09:20 PM 37.9267 -100.9364 92° East 498 573 39,000  Level Denver Center
Sat 11:10:19 PM 37.9228 -100.7653 92° East 501 577 39,000  Level Kansas City Center
Sat 11:11:20 PM 37.9306 -100.5936 87° East 506 582 39,000  Level Kansas City Center
Sat 11:12:21 PM 37.9442 -100.4244 84° East 505 581 39,000  Level Kansas City Center
Sat 11:13:21 PM 37.9594 -100.2261 84° East 504 580 39,000  Level Kansas City Center
Sat 11:14:19 PM 37.9719 -100.0564 85° East 505 581 39,000  Level Kansas City Center
Sat 11:15:22 PM 37.9844 -99.8858 85° East 507 583 39,000  Level Kansas City Center
Sat 11:16:23 PM 38.0000 -99.6897 84° East 502 578 39,000  Level Kansas City Center
Sat 11:17:23 PM 38.0128 -99.5214 84° East 502 578 39,000  Level Kansas City Center
Sat 11:18:23 PM 38.0253 -99.3461 85° East 503 579 39,000  Level Kansas City Center
Sat 11:19:22 PM 38.0383 -99.1683 85° East 507 583 39,000  Level Kansas City Center
Sat 11:20:25 PM 38.0506 -98.9892 85° East 508 585 39,000  Level Kansas City Center
Sat 11:21:26 PM 38.0622 -98.8103 85° East 509 586 39,000  Level Kansas City Center
Sat 11:22:27 PM 38.0747 -98.6303 85° East 510 587 39,000  Level Kansas City Center
Sat 11:23:24 PM 38.0875 -98.4503 85° East 512 589 39,000  Level Kansas City Center
Sat 11:24:25 PM 38.0994 -98.2689 85° East 514 592 39,000  Level Kansas City Center
Sat 11:25:28 PM 38.1092 -98.0981 86° East 517 595 39,000  Level Kansas City Center
Sat 11:26:29 PM 38.1178 -97.9119 87° East 533 613 39,000  Level Kansas City Center
Sat 11:27:27 PM 38.1319 -97.7031 85° East 515 593 39,000  Level Kansas City Center
Sat 11:28:30 PM 38.1417 -97.5244 86° East 510 587 39,000  Level Kansas City Center
Sat 11:29:30 PM 38.1508 -97.3475 86° East 514 592 39,000  Level Kansas City Center
Sat 11:30:31 PM 38.1608 -97.1667 86° East 512 589 39,000  Level Kansas City Center
Sat 11:31:31 PM 38.1697 -96.9872 86° East 510 587 39,000  Level Kansas City Center
Sat 11:32:29 PM 38.1792 -96.8069 86° East 510 587 39,000  Level Kansas City Center
Sat 11:33:31 PM 38.1881 -96.6283 86° East 508 585 39,000  Level Kansas City Center
Sat 11:34:31 PM 38.1953 -96.4550 87° East 509 586 39,000  Level Kansas City Center
Sat 11:35:33 PM 38.2047 -96.2586 86° East 503 579 39,000  Level Kansas City Center
Sat 11:36:34 PM 38.2125 -96.0867 87° East 508 585 39,000  Level Kansas City Center
Sat 11:37:34 PM 38.2197 -95.9156 87° East 508 585 39,000  Level Kansas City Center
Sat 11:38:34 PM 38.2275 -95.7167 87° East 507 583 39,000  Level Kansas City Center
Sat 11:39:35 PM 38.2353 -95.5458 87° East 507 583 39,000  Level Kansas City Center
Sat 11:40:36 PM 38.2417 -95.3758 87° East 506 582 39,000  Level Kansas City Center
Sat 11:41:34 PM 38.2489 -95.1781 87° East 504 580 39,000  Level Kansas City Center
Sat 11:42:35 PM 38.2547 -95.0058 87° East 507 583 39,000  Level Kansas City Center
Sat 11:43:35 PM 38.2606 -94.8339 87° East 509 586 39,000  Level Kansas City Center
Sat 11:44:37 PM 38.2667 -94.6339 88° East 508 585 39,000  Level Kansas City Center
Sat 11:45:36 PM 38.2700 -94.4622 89° East 509 586 39,000  Level Kansas City Center
Sat 11:46:38 PM 38.2486 -94.2947 99° East 504 580 39,000  Level Kansas City Center
Sat 11:47:39 PM 38.2275 -94.1300 99° East 499 574 39,000  Level Kansas City Center
Sat 11:48:39 PM 38.2028 -93.9414 99° East 498 573 39,000  Level Kansas City Center
Sat 11:49:40 PM 38.1808 -93.7672 99° East 499 574 39,000  Level Kansas City Center
Sat 11:50:40 PM 38.1578 -93.5944 100° East 498 573 39,000  Level Kansas City Center
Sat 11:51:39 PM 38.1356 -93.4219 99° East 495 570 39,000  Level Kansas City Center
Sat 11:52:41 PM 38.1125 -93.2506 100° East 492 566 39,000  Level Kansas City Center
Sat 11:53:42 PM 38.0903 -93.0794 99° East 492 566 39,000  Level Kansas City Center
Sat 11:54:42 PM 38.0686 -92.9089 99° East 491 565 39,000  Level Kansas City Center
Sat 11:55:41 PM 38.0458 -92.7411 100° East 490 564 39,000  Level Kansas City Center
Sat 11:56:43 PM 38.0219 -92.5661 100° East 500 575 39,000  Level Kansas City Center
Sat 11:57:43 PM 37.9989 -92.3964 100° East 496 571 39,000  Level Kansas City Center
Sat 11:58:44 PM 37.9717 -92.2233 101° East 499 574 39,000  Level Kansas City Center
Sat 11:59:43 PM 37.9458 -92.0303 100° East 497 572 39,000  Level Kansas City Center
Sun 12:00:45 AM 37.9214 -91.8614 100° East 490 564 39,000  Level Kansas City Center
Sun 12:01:44 AM 37.8967 -91.6917 100° East 489 563 39,000  Level Kansas City Center
Sun 12:02:45 AM 37.8725 -91.5203 100° East 493 567 39,000  Level Kansas City Center
Sun 12:03:46 AM 37.8456 -91.3511 101° East 491 565 39,000  Level Kansas City Center
Sun 12:04:46 AM 37.8206 -91.1803 100° East 491 565 39,000  Level Kansas City Center
Sun 12:05:45 AM 37.7933 -91.0050 101° East 495 570 39,000  Level Kansas City Center
Sun 12:06:47 AM 37.7675 -90.8356 101° East 495 570 39,000  Level Kansas City Center
Sun 12:07:45 AM 37.7403 -90.6661 101° East 495 570 39,000  Level Kansas City Center
Sun 12:08:48 AM 37.7136 -90.4942 101° East 498 573 39,000  Level Kansas City Center
Sun 12:09:48 AM 37.6867 -90.3244 101° East 499 574 39,000 -500 Level Kansas City Center
Sun 12:10:48 AM 37.6600 -90.1553 101° East 497 572 38,000 -958 Descending Kansas City Center
Sun 12:11:47 AM 37.6283 -89.9869 103° East 497 572 37,100 -942 Descending Kansas City Center
Sun 12:12:49 AM 37.5983 -89.8214 103° East 493 567 36,100 -934 Descending Kansas City Center
Sun 12:13:49 AM 37.5664 -89.6469 103° East 494 568 35,200 -958 Descending Kansas City Center
Sun 12:14:48 AM 37.5353 -89.4731 103° East 503 579 34,200 -1,017 Descending Kansas City Center
Sun 12:15:47 AM 37.5025 -89.3017 104° East 504 580 33,200 -590 Descending Kansas City Center
Sun 12:16:50 AM 37.4706 -89.1297 103° East 502 578 33,000 -1,061 Descending Kansas City Center
Sun 12:18:00 AM 37.4352 -88.9434 103° East  Level FlightAware Approximate
Sun 12:25:00 AM 37.2012 -87.8369 113° Southeast  Level FlightAware Approximate
Sun 12:26:00 AM 37.1270 -87.7029 120° Southeast  Level FlightAware Approximate
Sun 12:27:00 AM 37.0618 -87.5614 120° Southeast  Level FlightAware Approximate
Sun 12:28:00 AM 36.9905 -87.4249 126° Southeast  Level FlightAware Approximate
Sun 12:29:00 AM 36.9147 -87.2922 126° Southeast  Level FlightAware Approximate
Sun 12:30:00 AM 36.8481 -87.1523 120° Southeast  Level FlightAware Approximate
Sun 12:30:35 AM 36.7500 -87.2833 156° South 373 429 17,500  Level Nashville TRACON
Sun 12:31:00 AM 36.7546 -87.0523 158° South  Level FlightAware Approximate
Sun 12:31:41 AM 36.6667 -87.1833 136° Southeast 367 422 15,500  Level Nashville TRACON
Sun 12:32:00 AM 36.6361 -86.9847 158° South  Level FlightAware Approximate
Sun 12:32:41 AM 36.5833 -87.1000 141° Southeast 360 414 13,500  Level Nashville TRACON
Sun 12:33:00 AM 36.5207 -86.9100 150° Southeast  Level FlightAware Approximate
Sun 12:33:41 AM 36.5000 -87.0333 147° Southeast 346 398 11,400  Level Nashville TRACON
Sun 12:34:00 AM 36.4047 -86.8362 154° Southeast  Level FlightAware Approximate
Sun 12:34:41 AM 36.4167 -86.9833 154° Southeast 332 382 10,200  Level Nashville TRACON
Sun 12:35:00 AM 36.2858 -86.7699 156° South  Level FlightAware Approximate
Sun 12:35:41 AM 36.3500 -86.9333 149° Southeast 299 344 9,400  Level Nashville TRACON
Sun 12:36:41 AM 36.2667 -86.8833 154° Southeast 285 328 8,300 -1,250 Descending Nashville TRACON
Sun 12:37:41 AM 36.2000 -86.8500 158° South 281 323 6,900 -1,350 Descending Nashville TRACON
Sun 12:38:41 AM 36.1333 -86.8000 149° Southeast 273 314 5,600 -950 Descending Nashville TRACON
Sun 12:39:41 AM 36.0833 -86.7500 141° Southeast 241 277 5,000 -650 Descending Nashville TRACON
Sun 12:40:41 AM 36.0333 -86.7000 141° Southeast 231 266 4,300 -864 Descending Nashville TRACON
Sun 12:41:53 AM 36.0167 -86.6167 104° East 186 214 3,100 -955 Descending Nashville TRACON
Sun 12:42:53 AM 36.0667 -86.6000 15° North 158 182 2,200 -850 Descending Nashville TRACON
Sun 12:43:53 AM 36.1000 -86.6333 321° Northwest 136 157 1,400 -800 Descending Nashville TRACON
Sun 12:45:00 AM 36.1167 -86.6667 302° West  Level FlightAware Approximate
Sun 12:52:00 AM 36.1245 -86.6782 302° West  Level Estimated
Sun 12:53:00 AM 36.1245 -86.6782 302° West  Level Estimated
Sun 12:54:00 AM 36.1245 -86.6782 302° West  Level Estimated
Sun 12:55:00 AM 36.1245 -86.6782 302° West  Level Estimated
Sun 12:56:00 AM 36.1245 -86.6782 302° West  Level Estimated
Sun 12:57:00 AM 36.1245 -86.6782 302° West  Level Estimated
Sun 12:58:00 AM 36.1245 -86.6782 302° West  Level Estimated
Sun 12:59:00 AM 36.1245 -86.6782 302° West  Level Estimated
Sun 01:00:00 AM 36.1245 -86.6782 302° West  Level Estimated
Sun 01:01:00 AM 36.1245 -86.6782 302° West  Level Estimated

Login

Don't have an account? Register now (free) for customized features, flight alerts, and more!